Time;durP1;ratioP1;P1;durP2;ratioP2;P2;SDS_P1;SDS_P2;PMS_P1;PMS_P2;Temp;Humidity;BMP_temperature;BMP_pressure;BME280_temperature;BME280_humidity;BME280_pressure;Samples;Min_cycle;Max_cycle;Signal;HPM_P1;HPM_P2
2023/10/13 00:02:05;;;;;;;17.83;10.70;;;10.70;99.90;;;;;;12730181;23;20197;-81
2023/10/13 00:07:09;;;;;;;13.43;9.50;;;10.80;99.90;;;;;;12701483;23;20204;-81
2023/10/13 00:12:14;;;;;;;14.43;11.13;;;10.80;99.90;;;;;;12702230;23;20601;-82
2023/10/13 00:17:20;;;;;;;16.20;10.20;;;10.90;99.90;;;;;;12703037;23;20165;-81
2023/10/13 00:22:24;;;;;;;17.47;9.87;;;10.90;99.90;;;;;;12746001;23;20176;-81
2023/10/13 00:27:30;;;;;;;17.63;11.93;;;10.90;99.90;;;;;;12704422;23;20227;-81
2023/10/13 00:32:37;;;;;;;21.27;11.20;;;10.90;99.90;;;;;;12703087;23;20602;-82
2023/10/13 00:37:46;;;;;;;15.73;10.50;;;10.90;99.90;;;;;;12703211;23;20567;-81
2023/10/13 00:42:52;;;;;;;12.43;9.63;;;11.00;99.90;;;;;;12734698;23;20173;-81
2023/10/13 00:48:01;;;;;;;16.80;10.43;;;11.00;99.90;;;;;;12719971;23;20234;-81
2023/10/13 00:53:04;;;;;;;14.77;9.33;;;11.00;99.90;;;;;;12727913;23;20274;-81
2023/10/13 00:58:12;;;;;;;13.27;9.60;;;11.10;99.90;;;;;;12729309;23;20513;-81
2023/10/13 01:03:15;;;;;;;17.93;9.93;;;11.20;99.90;;;;;;12702909;23;20702;-81
2023/10/13 01:08:19;;;;;;;17.57;10.00;;;11.20;99.90;;;;;;12729645;23;20222;-81
2023/10/13 01:13:22;;;;;;;22.33;10.60;;;11.20;99.90;;;;;;12702112;23;20663;-81
2023/10/13 01:18:28;;;;;;;16.47;9.90;;;11.20;99.90;;;;;;12703612;23;20471;-81
2023/10/13 01:23:37;;;;;;;13.60;9.63;;;11.20;99.90;;;;;;12704191;23;20267;-88
2023/10/13 01:28:47;;;;;;;9.90;7.77;;;11.10;99.90;;;;;;12736705;23;20173;-88
2023/10/13 01:33:53;;;;;;;14.67;9.17;;;11.10;99.90;;;;;;12752770;23;20247;-88
2023/10/13 01:39:01;;;;;;;14.73;9.57;;;11.10;99.90;;;;;;12707435;23;20500;-88
2023/10/13 01:44:04;;;;;;;15.87;9.07;;;11.20;99.90;;;;;;12732968;23;20570;-88
2023/10/13 01:49:08;;;;;;;16.73;10.53;;;11.30;99.90;;;;;;12708835;23;20180;-88
2023/10/13 01:54:12;;;;;;;14.87;8.80;;;11.20;99.90;;;;;;12707172;23;20200;-87
2023/10/13 01:59:15;;;;;;;16.37;11.23;;;11.30;99.90;;;;;;12706918;23;20184;-88
2023/10/13 02:04:21;;;;;;;15.47;8.47;;;11.40;99.90;;;;;;12707977;23;20227;-88
2023/10/13 02:09:26;;;;;;;13.03;8.50;;;11.50;99.90;;;;;;12707540;23;20180;-88
2023/10/13 02:14:33;;;;;;;9.77;7.13;;;11.50;99.90;;;;;;12708253;23;20243;-88
2023/10/13 02:19:35;;;;;;;13.30;8.33;;;11.80;99.90;;;;;;12708819;23;20205;-88
2023/10/13 02:24:41;;;;;;;15.43;8.93;;;11.70;99.90;;;;;;12707080;23;20251;-88
2023/10/13 02:29:46;;;;;;;14.53;9.23;;;11.50;99.90;;;;;;12706833;23;20172;-88
2023/10/13 02:34:48;;;;;;;17.47;9.30;;;11.50;99.90;;;;;;12707809;23;20196;-88
2023/10/13 02:39:51;;;;;;;11.63;8.90;;;11.50;99.90;;;;;;12733277;23;20247;-88
2023/10/13 02:44:55;;;;;;;9.53;7.03;;;11.60;99.90;;;;;;12707353;23;20172;-88
2023/10/13 02:50:00;;;;;;;11.10;7.63;;;11.70;99.90;;;;;;12707021;23;20522;-88
2023/10/13 02:55:08;;;;;;;15.37;10.37;;;12.00;99.90;;;;;;12682666;23;20594;-88
2023/10/13 03:00:15;;;;;;;13.57;8.50;;;12.10;99.90;;;;;;12707715;23;20172;-88
2023/10/13 03:05:19;;;;;;;14.70;8.67;;;11.90;99.90;;;;;;12750058;23;20219;-88
2023/10/13 03:10:28;;;;;;;17.30;9.47;;;11.90;99.90;;;;;;12710570;23;20227;-88
2023/10/13 03:15:31;;;;;;;10.53;6.77;;;12.00;99.90;;;;;;12745179;23;20231;-88
2023/10/13 03:20:41;;;;;;;13.63;8.77;;;12.10;99.90;;;;;;12713541;23;20200;-88
2023/10/13 03:25:49;;;;;;;11.57;6.53;;;12.20;99.90;;;;;;12732531;23;20189;-88
2023/10/13 03:31:01;;;;;;;20.27;10.40;;;12.20;99.90;;;;;;12732582;23;20517;-88
2023/10/13 03:36:05;;;;;;;16.10;9.70;;;12.20;99.90;;;;;;12750155;23;20230;-88
2023/10/13 03:41:18;;;;;;;12.43;9.30;;;12.20;99.90;;;;;;12732781;23;20176;-88
2023/10/13 03:46:21;;;;;;;20.00;10.13;;;12.20;99.90;;;;;;12750378;23;20181;-88
2023/10/13 03:51:30;;;;;;;17.17;9.00;;;12.40;99.90;;;;;;12732458;23;20180;-88
2023/10/13 03:56:40;;;;;;;14.70;8.90;;;12.30;99.90;;;;;;12705150;23;20257;-88
2023/10/13 04:17:12;;;;;;;10.97;8.00;;;12.20;99.90;;;;;;12729473;23;20210;-89
2023/10/13 04:22:20;;;;;;;17.03;8.83;;;12.20;99.90;;;;;;12766145;23;20310;-89
2023/10/13 04:27:39;;;;;;;11.47;7.93;;;12.30;99.90;;;;;;12766271;23;20253;-89
2023/10/13 04:32:52;;;;;;;12.00;8.47;;;12.40;99.90;;;;;;12784664;23;20215;-89
2023/10/13 04:38:01;;;;;;;12.17;7.53;;;12.50;99.90;;;;;;12766168;23;20279;-88
2023/10/13 04:43:16;;;;;;;9.30;6.43;;;12.80;99.90;;;;;;12798315;23;20235;-89
2023/10/13 04:53:30;;;;;;;11.57;8.27;;;13.20;99.90;;;;;;12792052;23;20228;-89
2023/10/13 06:28:49;;;;;;;12.83;6.03;;;14.40;99.90;;;;;;12767818;23;20263;-89
2023/10/13 06:33:52;;;;;;;21.23;7.55;;;14.70;99.90;;;;;;12793071;23;20240;-89
2023/10/13 06:39:25;;;;;;;15.87;6.87;;;14.80;99.90;;;;;;12768176;23;20216;-89
2023/10/13 06:44:22;;;;;;;23.43;9.23;;;14.90;99.90;;;;;;12793879;23;20236;-89
2023/10/13 06:49:25;;;;;;;17.93;7.90;;;15.00;99.90;;;;;;12810687;23;20208;-89
2023/10/13 06:54:28;;;;;;;19.20;10.13;;;15.00;99.90;;;;;;12767754;23;20272;-90
2023/10/13 06:59:32;;;;;;;12.53;6.50;;;15.20;99.90;;;;;;12768225;23;20227;-89
2023/10/13 07:04:39;;;;;;;27.92;11.85;;;15.10;99.90;;;;;;12769161;23;20356;-90
2023/10/13 07:09:58;;;;;;;25.38;9.85;;;15.10;99.90;;;;;;12810533;23;20228;-89
2023/10/13 07:15:10;;;;;;;19.73;8.97;;;15.10;99.90;;;;;;12743799;23;20239;-89
2023/10/13 07:20:57;;;;;;;9.53;5.37;;;15.10;99.90;;;;;;12792618;23;20212;-90
2023/10/13 07:25:40;;;;;;;9.87;5.60;;;15.20;99.90;;;;;;12783963;23;20264;-90
2023/10/13 07:31:08;;;;;;;16.42;5.90;;;15.20;99.90;;;;;;12794424;23;20248;-89
2023/10/13 07:41:30;;;;;;;12.20;6.57;;;15.20;99.90;;;;;;12708309;23;20244;-90
2023/10/13 07:46:35;;;;;;;22.52;13.10;;;15.30;99.90;;;;;;12709299;23;20225;-90
2023/10/13 07:51:44;;;;;;;11.27;6.55;;;15.50;99.90;;;;;;12708509;23;20239;-91
2023/10/13 07:56:50;;;;;;;26.63;14.48;;;15.70;99.90;;;;;;12733695;23;20240;-91
2023/10/13 08:07:14;;;;;;;22.40;10.80;;;15.80;99.90;;;;;;12733090;23;20277;-90
2023/10/13 08:12:21;;;;;;;31.83;15.10;;;15.80;99.90;;;;;;12709285;23;20693;-90
2023/10/13 08:17:30;;;;;;;25.90;14.15;;;15.80;99.90;;;;;;12684284;23;20280;-89
2023/10/13 08:22:35;;;;;;;27.93;15.57;;;15.80;99.90;;;;;;12707684;23;20539;-90
2023/10/13 08:28:45;;;;;;;23.83;15.10;;;15.80;99.90;;;;;;12733315;23;20221;-90
2023/10/13 08:33:23;;;;;;;31.97;20.27;;;15.90;99.90;;;;;;12734095;23;20242;-87
2023/10/13 08:38:29;;;;;;;29.60;17.37;;;16.00;99.90;;;;;;12750413;23;20225;-90
2023/10/13 08:43:44;;;;;;;31.93;17.47;;;16.10;99.90;;;;;;12708642;23;20232;-90
2023/10/13 08:48:47;;;;;;;27.50;17.27;;;16.20;99.90;;;;;;12752152;23;20230;-90
2023/10/13 08:53:57;;;;;;;34.50;17.87;;;16.30;99.90;;;;;;12751979;23;20220;-90
2023/10/13 09:04:59;;;;;;;33.78;17.73;;;16.50;99.90;;;;;;12733931;23;20226;-89
2023/10/13 09:09:42;;;;;;;32.77;16.77;;;16.70;99.90;;;;;;12719155;23;20241;-89
2023/10/13 09:14:58;;;;;;;25.10;15.73;;;17.00;99.90;;;;;;12733629;23;20265;-90
2023/10/13 09:20:32;;;;;;;28.63;18.90;;;17.10;99.90;;;;;;12726129;23;20228;-92
2023/10/13 09:25:37;;;;;;;31.50;18.27;;;17.30;99.90;;;;;;12708012;23;20232;-93
2023/10/13 09:30:44;;;;;;;17.77;10.83;;;17.50;99.90;;;;;;12733713;23;20205;-93
2023/10/13 09:35:49;;;;;;;18.27;11.17;;;17.70;99.90;;;;;;12732419;23;20240;-92
2023/10/13 09:41:01;;;;;;;27.20;16.60;;;18.00;99.90;;;;;;12708714;23;20220;-92
2023/10/13 09:46:15;;;;;;;30.42;17.52;;;;;;;;;;12712175;23;20245;-93
2023/10/13 09:51:21;;;;;;;18.75;11.65;;;18.40;99.90;;;;;;12724630;23;20239;-93
2023/10/13 09:56:28;;;;;;;24.50;14.40;;;18.60;99.90;;;;;;12683987;23;20201;-92
2023/10/13 10:01:32;;;;;;;21.97;14.47;;;18.80;99.90;;;;;;12707960;23;20173;-92
2023/10/13 10:06:39;;;;;;;23.20;12.97;;;18.90;99.90;;;;;;12709275;23;20173;-92
2023/10/13 10:12:11;;;;;;;21.60;12.63;;;18.80;99.90;;;;;;12683778;23;20209;-91
2023/10/13 10:17:14;;;;;;;13.20;9.10;;;18.80;99.90;;;;;;12719667;23;20212;-92
2023/10/13 10:22:39;;;;;;;16.93;10.43;;;18.80;99.90;;;;;;12702618;23;20255;-92
2023/10/13 10:27:42;;;;;;;10.60;7.90;;;18.90;99.90;;;;;;12662262;23;20655;-92
2023/10/13 10:32:48;;;;;;;9.63;7.03;;;18.90;99.90;;;;;;12693090;23;20232;-92
2023/10/13 10:37:52;;;;;;;9.63;7.47;;;18.90;99.90;;;;;;12688468;23;20201;-93
2023/10/13 10:43:00;;;;;;;8.57;6.68;;;19.00;99.90;;;;;;12663636;23;20228;-92
2023/10/13 10:48:18;;;;;;;5.83;4.67;;;19.20;99.90;;;;;;12687609;23;20197;-92
2023/10/13 10:54:11;;;;;;;4.78;4.35;;;19.30;99.90;;;;;;12693536;23;20181;-91
2023/10/13 10:58:59;;;;;;;6.88;4.82;;;19.50;99.90;;;;;;12651416;23;20235;-90
2023/10/13 11:04:08;;;;;;;10.48;5.38;;;19.60;99.90;;;;;;12693394;23;20220;-90
2023/10/13 11:14:32;;;;;;;6.18;4.10;;;19.80;99.90;;;;;;12688975;23;20251;-90
2023/10/13 11:19:39;;;;;;;7.70;4.60;;;19.70;99.10;;;;;;12678302;23;20165;-90
2023/10/13 11:24:45;;;;;;;8.98;5.32;;;19.70;99.90;;;;;;12684895;23;20209;-90
2023/10/13 11:29:52;;;;;;;7.15;5.72;;;19.70;99.90;;;;;;12686157;23;20173;-91
2023/10/13 11:34:54;;;;;;;6.05;5.45;;;19.70;99.90;;;;;;12699827;23;20247;-92
2023/10/13 11:39:57;;;;;;;6.63;5.45;;;19.80;99.90;;;;;;12679217;23;20261;-90
2023/10/13 11:45:28;;;;;;;10.30;6.55;;;19.80;99.90;;;;;;12677128;23;20185;-91
2023/10/13 11:50:35;;;;;;;8.00;6.03;;;19.70;99.90;;;;;;12703365;23;20173;-91
2023/10/13 11:55:37;;;;;;;7.28;4.93;;;19.70;99.90;;;;;;12699168;23;20189;-90
2023/10/13 12:01:01;;;;;;;11.45;7.45;;;19.70;99.90;;;;;;12683402;23;20224;-90
2023/10/13 12:06:19;;;;;;;8.88;5.95;;;19.70;99.90;;;;;;12647222;23;20256;-90
2023/10/13 12:11:30;;;;;;;10.73;6.68;;;19.70;99.90;;;;;;12661240;23;20177;-91
2023/10/13 12:16:34;;;;;;;16.38;6.70;;;19.70;99.90;;;;;;12671378;23;20197;-89
2023/10/13 12:21:37;;;;;;;7.63;5.13;;;19.70;99.90;;;;;;12671198;23;20275;-89
2023/10/13 12:26:42;;;;;;;12.63;6.55;;;19.70;99.90;;;;;;12646418;23;20197;-89
2023/10/13 12:31:52;;;;;;;11.98;5.70;;;19.70;99.90;;;;;;12670747;23;20287;-89
2023/10/13 12:37:05;;;;;;;10.90;5.28;;;19.70;99.90;;;;;;12670955;23;20201;-89
2023/10/13 12:52:51;;;;;;;8.30;4.47;;;19.70;99.90;;;;;;12669969;23;20180;-90
2023/10/13 12:57:53;;;;;;;8.20;5.35;;;19.70;99.90;;;;;;12669087;23;20243;-90
2023/10/13 13:02:56;;;;;;;6.80;4.72;;;19.70;99.90;;;;;;12669040;23;20224;-91
2023/10/13 13:07:59;;;;;;;7.88;5.25;;;19.70;99.90;;;;;;12668706;23;20173;-91
2023/10/13 13:13:03;;;;;;;10.27;5.13;;;19.60;99.90;;;;;;12668752;23;20173;-89
2023/10/13 13:18:12;;;;;;;6.82;5.07;;;19.60;99.90;;;;;;12671609;23;20397;-90
2023/10/13 13:23:14;;;;;;;8.55;7.20;;;19.50;99.90;;;;;;12653228;23;20293;-90
2023/10/13 13:28:23;;;;;;;9.32;5.25;;;19.40;99.90;;;;;;12672405;23;20246;-90
2023/10/13 13:33:26;;;;;;;8.10;5.53;;;19.30;99.90;;;;;;12689949;23;20177;-90
2023/10/13 13:38:31;;;;;;;7.00;6.30;;;19.20;99.90;;;;;;12646918;23;20201;-89
2023/10/13 13:43:37;;;;;;;7.68;6.80;;;19.20;99.90;;;;;;12679147;23;20247;-90
2023/10/13 13:48:41;;;;;;;8.35;5.22;;;19.20;99.90;;;;;;12689901;23;20173;-89
2023/10/13 13:53:47;;;;;;;14.13;6.32;;;19.20;99.90;;;;;;12672680;23;20248;-90
2023/10/13 13:58:51;;;;;;;7.40;6.40;;;19.20;99.90;;;;;;12645933;23;20201;-89
2023/10/13 14:04:02;;;;;;;8.55;5.53;;;19.20;99.90;;;;;;12671428;23;20227;-91
2023/10/13 14:09:15;;;;;;;14.23;7.85;;;19.10;99.90;;;;;;12663199;23;20173;-91
2023/10/13 14:19:29;;;;;;;13.50;7.07;;;19.00;99.90;;;;;;12645242;23;20192;-90
2023/10/13 14:24:43;;;;;;;9.68;6.55;;;19.00;99.90;;;;;;12670897;23;20204;-92
2023/10/13 14:44:40;;;;;;;7.07;5.43;;;18.90;99.90;;;;;;10610616;27;20546;-80
2023/10/13 14:49:42;;;;;;;7.28;5.63;;;18.70;99.90;;;;;;10610133;27;20265;-80
2023/10/13 14:54:45;;;;;;;10.70;7.32;;;18.70;99.90;;;;;;10592260;27;20228;-80
2023/10/13 14:59:48;;;;;;;11.30;7.10;;;18.70;99.90;;;;;;10591271;27;20546;-80
2023/10/13 15:04:50;;;;;;;12.63;8.10;;;18.60;99.90;;;;;;10252818;23;9999758;-90
2023/10/13 15:09:56;;;;;;;9.73;5.68;;;18.60;99.90;;;;;;10568408;28;20270;-91
2023/10/13 15:14:59;;;;;;;8.57;6.40;;;18.60;99.90;;;;;;10549860;28;20205;-90
2023/10/13 15:20:02;;;;;;;9.60;7.35;;;18.50;99.90;;;;;;10549547;28;20618;-90
2023/10/13 15:25:17;;;;;;;6.05;5.43;;;18.40;99.90;;;;;;10568530;28;20250;-90
2023/10/13 15:30:44;;;;;;;8.77;6.53;;;18.40;99.90;;;;;;10568773;28;20247;-89
2023/10/13 15:35:47;;;;;;;7.07;5.03;;;18.40;99.90;;;;;;10566518;28;20205;-89
2023/10/13 15:40:54;;;;;;;10.73;6.13;;;18.40;99.90;;;;;;10566365;28;20201;-90
2023/10/13 15:46:00;;;;;;;9.20;7.25;;;18.40;99.90;;;;;;10540280;28;20189;-90
2023/10/13 15:51:22;;;;;;;8.60;6.23;;;18.40;99.90;;;;;;10523735;28;20715;-90
2023/10/13 15:56:25;;;;;;;7.50;5.47;;;18.30;99.90;;;;;;10538808;28;20220;-89
2023/10/13 16:01:28;;;;;;;10.20;7.20;;;18.30;99.90;;;;;;10522138;28;20194;-89
2023/10/13 16:06:31;;;;;;;6.30;5.57;;;18.30;99.90;;;;;;10539463;28;20218;-89
2023/10/13 16:11:33;;;;;;;6.75;5.35;;;18.20;99.90;;;;;;10539783;28;20278;-88
2023/10/13 16:16:37;;;;;;;6.25;5.07;;;18.20;99.90;;;;;;10538719;28;20194;-88
2023/10/13 16:21:40;;;;;;;9.55;4.53;;;18.20;99.90;;;;;;10522620;28;20263;-88
2023/10/13 16:26:52;;;;;;;11.93;7.07;;;18.10;99.90;;;;;;10536180;28;20660;-88
2023/10/13 16:31:55;;;;;;;10.32;5.95;;;18.10;99.90;;;;;;10539256;28;20222;-88
2023/10/13 16:36:58;;;;;;;7.00;6.25;;;18.00;99.90;;;;;;10539436;28;20198;-89
2023/10/13 16:42:00;;;;;;;6.30;5.18;;;17.90;99.90;;;;;;10539809;28;20198;-88
2023/10/13 16:47:04;;;;;;;11.15;7.82;;;17.70;99.90;;;;;;10519394;28;20761;-89
2023/10/13 16:52:07;;;;;;;8.90;7.27;;;17.80;99.90;;;;;;10537808;28;20226;-89
2023/10/13 16:57:11;;;;;;;9.45;7.82;;;17.60;99.90;;;;;;10536642;28;20212;-89
2023/10/13 17:02:15;;;;;;;11.05;7.65;;;17.60;99.90;;;;;;10536722;28;20544;-89
2023/10/13 17:07:18;;;;;;;9.45;7.43;;;17.50;99.90;;;;;;10537716;28;20600;-91
2023/10/13 17:12:22;;;;;;;14.77;9.57;;;17.40;99.90;;;;;;10518785;28;20221;-91
2023/10/13 17:17:25;;;;;;;11.33;8.97;;;17.30;99.90;;;;;;10535531;28;20557;-91
2023/10/13 17:22:28;;;;;;;10.53;7.77;;;17.20;99.90;;;;;;10537190;28;20251;-90
2023/10/13 17:27:36;;;;;;;10.63;8.45;;;17.00;99.90;;;;;;10531486;28;20229;-91
2023/10/13 17:32:39;;;;;;;13.07;7.68;;;16.90;99.90;;;;;;10534081;28;20252;-93
2023/10/13 17:37:42;;;;;;;10.63;7.32;;;16.80;99.90;;;;;;10534818;28;20223;-92
2023/10/13 17:42:52;;;;;;;14.65;7.88;;;16.70;99.90;;;;;;10535727;28;20579;-93
2023/10/13 17:47:55;;;;;;;13.80;7.83;;;16.60;99.90;;;;;;10497937;28;20561;-93
2023/10/13 17:52:58;;;;;;;12.47;8.13;;;16.60;99.90;;;;;;10534650;28;20218;-92
2023/10/13 17:58:00;;;;;;;13.30;9.03;;;16.50;99.90;;;;;;10534122;28;20198;-92
2023/10/13 18:03:06;;;;;;;10.60;7.63;;;16.50;99.90;;;;;;10535992;28;20202;-91
2023/10/13 18:08:09;;;;;;;16.55;9.18;;;16.50;99.90;;;;;;10536679;28;20641;-92
2023/10/13 18:13:12;;;;;;;18.03;8.23;;;16.40;99.90;;;;;;10521233;28;20760;-92
2023/10/13 18:18:16;;;;;;;12.87;8.50;;;16.30;99.90;;;;;;10512849;28;20194;-90
2023/10/13 18:23:18;;;;;;;13.53;8.67;;;16.20;99.90;;;;;;10529393;28;20266;-90
2023/10/13 18:28:21;;;;;;;13.27;6.97;;;16.10;99.90;;;;;;10536966;28;20235;-90
2023/10/13 18:33:23;;;;;;;12.30;7.93;;;16.10;99.90;;;;;;10537670;28;20213;-92
2023/10/13 18:38:30;;;;;;;12.27;6.83;;;16.20;99.90;;;;;;10507735;28;20575;-91
2023/10/13 18:43:38;;;;;;;14.60;7.27;;;16.30;99.90;;;;;;10518335;28;20255;-93
2023/10/13 18:48:43;;;;;;;13.63;6.82;;;16.30;99.90;;;;;;10536216;28;20354;-91
2023/10/13 18:53:47;;;;;;;14.37;7.77;;;16.40;99.90;;;;;;10534632;28;20214;-91
2023/10/13 18:58:54;;;;;;;15.27;9.20;;;16.50;99.90;;;;;;10502533;28;20584;-91
2023/10/13 19:03:59;;;;;;;11.77;7.57;;;16.60;99.90;;;;;;10536268;28;20221;-91
2023/10/13 19:09:05;;;;;;;10.85;5.85;;;16.90;99.90;;;;;;10536200;28;20227;-91
2023/10/13 19:14:10;;;;;;;12.30;7.43;;;16.80;99.90;;;;;;10535738;28;20288;-92
2023/10/13 19:19:12;;;;;;;20.60;7.15;;;16.90;99.90;;;;;;10540536;28;20232;-93
2023/10/13 19:24:19;;;;;;;11.30;6.47;;;17.00;99.90;;;;;;10543435;28;20571;-92
2023/10/13 19:29:23;;;;;;;9.57;6.50;;;17.10;99.90;;;;;;10540171;28;20194;-91
2023/10/13 19:34:25;;;;;;;15.67;8.37;;;17.10;99.90;;;;;;10542544;28;20210;-92
2023/10/13 19:39:28;;;;;;;14.87;6.77;;;17.20;99.90;;;;;;10524474;28;20198;-92
2023/10/13 19:44:30;;;;;;;8.05;5.45;;;17.20;99.90;;;;;;10542803;28;20205;-91
2023/10/13 19:49:36;;;;;;;16.23;8.02;;;17.30;99.90;;;;;;10541934;28;20295;-91
2023/10/13 19:54:39;;;;;;;15.85;6.97;;;17.40;99.90;;;;;;10542312;28;20502;-92
2023/10/13 19:59:41;;;;;;;15.07;6.33;;;17.50;99.90;;;;;;10527884;28;20664;-91
2023/10/13 20:04:44;;;;;;;20.10;7.75;;;17.50;99.90;;;;;;10541515;28;20218;-91
2023/10/13 20:09:46;;;;;;;17.88;7.93;;;17.50;99.90;;;;;;10527455;28;20201;-91
2023/10/13 20:14:49;;;;;;;20.08;7.10;;;17.60;99.90;;;;;;10521916;28;20240;-92
2023/10/13 20:19:53;;;;;;;15.10;8.20;;;17.60;99.90;;;;;;10531741;28;20667;-91
2023/10/13 20:24:56;;;;;;;8.32;6.22;;;17.70;99.90;;;;;;10540270;28;20194;-90
2023/10/13 20:29:58;;;;;;;11.23;6.47;;;17.70;99.90;;;;;;10540092;28;20238;-91
2023/10/13 20:35:03;;;;;;;10.48;7.40;;;17.70;99.90;;;;;;10539729;28;20271;-90
2023/10/13 20:40:18;;;;;;;15.73;8.07;;;17.80;99.90;;;;;;10539177;28;20247;-91
2023/10/13 20:45:23;;;;;;;14.63;7.50;;;17.80;99.90;;;;;;10539743;28;20250;-91
2023/10/13 20:50:26;;;;;;;21.10;8.07;;;17.70;99.90;;;;;;10531446;28;20190;-91
2023/10/13 20:55:28;;;;;;;14.57;7.20;;;17.70;99.90;;;;;;10539444;28;20210;-90
2023/10/13 21:00:34;;;;;;;11.10;8.55;;;17.60;99.90;;;;;;10538879;28;20193;-91
2023/10/13 21:05:37;;;;;;;14.17;7.50;;;17.40;99.90;;;;;;10538617;28;20263;-91
2023/10/13 21:10:40;;;;;;;10.77;5.18;;;17.30;99.90;;;;;;10531017;28;20206;-90
2023/10/13 21:15:42;;;;;;;12.35;7.28;;;17.30;99.90;;;;;;10519630;28;20652;-91
2023/10/13 21:20:45;;;;;;;13.27;7.38;;;17.20;99.90;;;;;;10537616;28;20194;-91
2023/10/13 21:25:48;;;;;;;17.15;7.63;;;17.10;99.90;;;;;;10538433;28;20636;-91
2023/10/13 21:30:51;;;;;;;9.18;5.93;;;17.10;99.90;;;;;;10537580;28;20243;-92
2023/10/13 21:35:53;;;;;;;14.33;7.27;;;17.00;99.90;;;;;;10519488;28;20228;-91
2023/10/13 21:41:05;;;;;;;11.25;7.28;;;16.90;99.90;;;;;;10536078;28;20231;-91
2023/10/13 21:46:34;;;;;;;16.80;7.20;;;16.80;99.90;;;;;;10536987;28;20243;-91
2023/10/13 21:51:35;;;;;;;10.20;7.03;;;16.80;99.90;;;;;;10511140;28;20213;-91
2023/10/13 21:56:38;;;;;;;14.88;7.15;;;16.80;99.90;;;;;;10536958;28;20190;-91
2023/10/13 22:01:44;;;;;;;14.83;6.60;;;16.80;99.90;;;;;;10535546;28;20239;-91
2023/10/13 22:06:46;;;;;;;11.80;6.70;;;16.80;99.90;;;;;;10517686;28;20286;-90
2023/10/13 22:11:49;;;;;;;11.13;7.30;;;16.80;99.90;;;;;;10535275;28;20217;-91
2023/10/13 22:16:52;;;;;;;11.63;6.82;;;16.80;99.90;;;;;;10535577;28;20251;-91
2023/10/13 22:21:54;;;;;;;7.87;5.10;;;16.80;99.90;;;;;;10536460;28;20251;-91
2023/10/13 22:26:57;;;;;;;10.98;7.00;;;16.70;99.90;;;;;;10534992;28;20243;-91
2023/10/13 22:31:59;;;;;;;11.03;7.90;;;16.70;99.90;;;;;;10518337;28;20229;-90
2023/10/13 22:37:02;;;;;;;16.93;7.43;;;16.80;99.90;;;;;;10535097;28;20197;-91
2023/10/13 22:42:08;;;;;;;10.97;6.20;;;16.90;99.90;;;;;;10535024;28;20202;-91
2023/10/13 22:47:10;;;;;;;13.40;6.43;;;16.90;99.90;;;;;;10534956;28;20255;-90
2023/10/13 22:52:13;;;;;;;8.93;5.05;;;17.00;99.90;;;;;;10537931;28;20559;-90
2023/10/13 22:57:16;;;;;;;18.63;6.73;;;17.10;99.90;;;;;;10544016;28;20238;-90
2023/10/13 23:02:20;;;;;;;11.13;6.17;;;17.20;99.90;;;;;;10542526;28;20614;-92
2023/10/13 23:07:23;;;;;;;10.07;5.50;;;17.30;99.90;;;;;;10542740;28;20221;-91
2023/10/13 23:12:29;;;;;;;12.85;6.05;;;17.30;99.90;;;;;;10508320;28;20748;-91
2023/10/13 23:17:33;;;;;;;6.93;6.07;;;17.40;99.90;;;;;;10542891;28;20201;-91
2023/10/13 23:22:35;;;;;;;5.40;4.70;;;17.40;99.90;;;;;;10543645;28;20247;-90
2023/10/13 23:27:39;;;;;;;7.38;5.38;;;17.50;99.90;;;;;;10542563;28;20551;-91
2023/10/13 23:32:42;;;;;;;13.55;5.68;;;17.70;99.90;;;;;;10542596;28;20221;-91
2023/10/13 23:37:44;;;;;;;14.35;7.03;;;17.70;99.90;;;;;;10542855;28;20245;-92
2023/10/13 23:42:56;;;;;;;9.02;5.80;;;17.60;99.90;;;;;;10543072;28;20447;-91
2023/10/13 23:47:58;;;;;;;14.57;5.83;;;17.60;99.90;;;;;;10523209;28;20194;-91
2023/10/13 23:53:03;;;;;;;7.75;5.32;;;17.60;99.90;;;;;;10524469;28;20214;-90
2023/10/13 23:58:06;;;;;;;13.73;5.75;;;17.50;99.90;;;;;;10541704;28;20197;-90
